Terminal Aerodrome Forecast
Issued by NWS

Home | Current Version | Previous Version | Graphics & Text | Print | Product List | Glossary On
Versions: 1 2 3 4 5 6 7 8 9 10 11 12 13
001
FTUS43 KBIS 211722
TAFMOT
TAF
KMOT 211722Z 2118/2218 09008KT P6SM SCT025
     FM212200 10012KT P6SM SCT200
     FM220800 12015KT P6SM OVC100
     FM221500 14017G23KT P6SM OVC030
     FM221700 15018G24KT P6SM OVC015=

USA.gov is the U.S. government's official web portal to all federal, state and local government web resources and services.